sensor_id;sensor_type;location;lat;lon;timestamp;P1;durP1;ratioP1;P2;durP2;ratioP2
59040;SDS011;44825;53.200;6.448;2023-06-04T00:00:11;10.82;;;3.92;;
59040;SDS011;44825;53.200;6.448;2023-06-04T00:02:37;8.93;;;4.38;;
59040;SDS011;44825;53.200;6.448;2023-06-04T00:05:03;9.85;;;5.07;;
59040;SDS011;44825;53.200;6.448;2023-06-04T00:07:29;13.70;;;5.97;;
59040;SDS011;44825;53.200;6.448;2023-06-04T00:09:56;9.60;;;4.60;;
59040;SDS011;44825;53.200;6.448;2023-06-04T00:12:22;10.23;;;4.70;;
59040;SDS011;44825;53.200;6.448;2023-06-04T00:14:48;17.80;;;5.53;;
59040;SDS011;44825;53.200;6.448;2023-06-04T00:17:14;12.40;;;6.00;;
59040;SDS011;44825;53.200;6.448;2023-06-04T00:19:40;10.32;;;4.93;;
59040;SDS011;44825;53.200;6.448;2023-06-04T00:22:06;9.18;;;4.22;;
59040;SDS011;44825;53.200;6.448;2023-06-04T00:24:33;8.38;;;3.83;;
59040;SDS011;44825;53.200;6.448;2023-06-04T00:27:00;10.93;;;4.50;;
59040;SDS011;44825;53.200;6.448;2023-06-04T00:29:26;9.35;;;3.45;;
59040;SDS011;44825;53.200;6.448;2023-06-04T00:31:52;8.85;;;3.45;;
59040;SDS011;44825;53.200;6.448;2023-06-04T00:34:18;6.65;;;2.97;;
59040;SDS011;44825;53.200;6.448;2023-06-04T00:36:44;6.88;;;3.30;;
59040;SDS011;44825;53.200;6.448;2023-06-04T00:39:10;10.65;;;3.25;;
59040;SDS011;44825;53.200;6.448;2023-06-04T00:41:36;12.15;;;3.47;;
59040;SDS011;44825;53.200;6.448;2023-06-04T00:44:02;8.95;;;2.80;;
59040;SDS011;44825;53.200;6.448;2023-06-04T00:46:31;7.20;;;3.22;;
59040;SDS011;44825;53.200;6.448;2023-06-04T00:48:58;8.38;;;3.13;;
59040;SDS011;44825;53.200;6.448;2023-06-04T00:51:24;8.43;;;2.90;;
59040;SDS011;44825;53.200;6.448;2023-06-04T00:53:51;9.80;;;3.15;;
59040;SDS011;44825;53.200;6.448;2023-06-04T00:56:17;8.43;;;2.88;;
59040;SDS011;44825;53.200;6.448;2023-06-04T00:58:44;6.90;;;3.20;;
59040;SDS011;44825;53.200;6.448;2023-06-04T01:01:12;7.80;;;2.78;;
59040;SDS011;44825;53.200;6.448;2023-06-04T01:03:41;7.85;;;2.70;;
59040;SDS011;44825;53.200;6.448;2023-06-04T01:08:37;7.18;;;2.67;;
59040;SDS011;44825;53.200;6.448;2023-06-04T01:11:07;8.15;;;2.65;;
59040;SDS011;44825;53.200;6.448;2023-06-04T01:13:34;5.97;;;2.50;;
59040;SDS011;44825;53.200;6.448;2023-06-04T01:16:00;8.82;;;3.00;;
59040;SDS011;44825;53.200;6.448;2023-06-04T01:18:27;6.85;;;2.85;;
59040;SDS011;44825;53.200;6.448;2023-06-04T01:21:04;7.32;;;3.05;;
59040;SDS011;44825;53.200;6.448;2023-06-04T01:26:04;6.15;;;2.58;;
59040;SDS011;44825;53.200;6.448;2023-06-04T01:28:31;6.75;;;2.53;;
59040;SDS011;44825;53.200;6.448;2023-06-04T01:30:58;7.93;;;2.40;;
59040;SDS011;44825;53.200;6.448;2023-06-04T01:33:26;9.23;;;3.05;;
59040;SDS011;44825;53.200;6.448;2023-06-04T01:35:53;8.25;;;3.08;;
59040;SDS011;44825;53.200;6.448;2023-06-04T01:38:19;8.32;;;2.90;;
59040;SDS011;44825;53.200;6.448;2023-06-04T01:40:46;7.30;;;2.88;;
59040;SDS011;44825;53.200;6.448;2023-06-04T01:43:12;8.93;;;2.50;;
59040;SDS011;44825;53.200;6.448;2023-06-04T01:45:38;5.57;;;2.55;;
59040;SDS011;44825;53.200;6.448;2023-06-04T01:48:05;20.65;;;3.45;;
59040;SDS011;44825;53.200;6.448;2023-06-04T01:50:31;7.88;;;2.70;;
59040;SDS011;44825;53.200;6.448;2023-06-04T01:52:57;7.22;;;2.30;;
59040;SDS011;44825;53.200;6.448;2023-06-04T01:55:24;7.55;;;2.58;;
59040;SDS011;44825;53.200;6.448;2023-06-04T01:57:50;5.38;;;2.65;;
59040;SDS011;44825;53.200;6.448;2023-06-04T02:00:17;6.10;;;2.75;;
59040;SDS011;44825;53.200;6.448;2023-06-04T02:02:44;6.60;;;2.72;;
59040;SDS011;44825;53.200;6.448;2023-06-04T02:05:13;6.13;;;2.40;;
59040;SDS011;44825;53.200;6.448;2023-06-04T02:07:40;7.25;;;3.15;;
59040;SDS011;44825;53.200;6.448;2023-06-04T02:12:35;8.57;;;2.47;;
59040;SDS011;44825;53.200;6.448;2023-06-04T02:15:01;5.50;;;2.30;;
59040;SDS011;44825;53.200;6.448;2023-06-04T02:17:27;6.95;;;2.88;;
59040;SDS011;44825;53.200;6.448;2023-06-04T02:19:57;5.82;;;2.20;;
59040;SDS011;44825;53.200;6.448;2023-06-04T02:22:23;6.40;;;2.28;;
59040;SDS011;44825;53.200;6.448;2023-06-04T02:24:50;7.07;;;2.63;;
59040;SDS011;44825;53.200;6.448;2023-06-04T02:27:16;7.32;;;2.40;;
59040;SDS011;44825;53.200;6.448;2023-06-04T02:29:42;7.78;;;2.20;;
59040;SDS011;44825;53.200;6.448;2023-06-04T02:32:08;8.10;;;2.03;;
59040;SDS011;44825;53.200;6.448;2023-06-04T02:34:35;4.70;;;2.10;;
59040;SDS011;44825;53.200;6.448;2023-06-04T02:37:01;4.50;;;1.90;;
59040;SDS011;44825;53.200;6.448;2023-06-04T02:39:27;5.55;;;2.42;;
59040;SDS011;44825;53.200;6.448;2023-06-04T02:41:54;5.25;;;1.92;;
59040;SDS011;44825;53.200;6.448;2023-06-04T02:44:20;6.60;;;2.40;;
59040;SDS011;44825;53.200;6.448;2023-06-04T02:46:46;4.90;;;2.03;;
59040;SDS011;44825;53.200;6.448;2023-06-04T02:49:12;4.75;;;1.88;;
59040;SDS011;44825;53.200;6.448;2023-06-04T02:51:41;4.45;;;1.58;;
59040;SDS011;44825;53.200;6.448;2023-06-04T02:54:07;3.72;;;1.50;;
59040;SDS011;44825;53.200;6.448;2023-06-04T02:56:35;3.92;;;1.52;;
59040;SDS011;44825;53.200;6.448;2023-06-04T02:59:02;5.22;;;1.83;;
59040;SDS011;44825;53.200;6.448;2023-06-04T03:01:28;3.85;;;1.80;;
59040;SDS011;44825;53.200;6.448;2023-06-04T03:03:55;5.97;;;2.10;;
59040;SDS011;44825;53.200;6.448;2023-06-04T03:06:22;5.50;;;2.40;;
59040;SDS011;44825;53.200;6.448;2023-06-04T03:08:49;5.57;;;2.30;;
59040;SDS011;44825;53.200;6.448;2023-06-04T03:11:16;6.65;;;2.40;;
59040;SDS011;44825;53.200;6.448;2023-06-04T03:13:42;3.80;;;1.75;;
59040;SDS011;44825;53.200;6.448;2023-06-04T03:16:08;5.35;;;1.60;;
59040;SDS011;44825;53.200;6.448;2023-06-04T03:18:41;4.00;;;1.80;;
59040;SDS011;44825;53.200;6.448;2023-06-04T03:21:08;5.70;;;2.03;;
59040;SDS011;44825;53.200;6.448;2023-06-04T03:23:36;6.47;;;2.00;;
59040;SDS011;44825;53.200;6.448;2023-06-04T03:26:02;4.63;;;1.70;;
59040;SDS011;44825;53.200;6.448;2023-06-04T03:28:30;4.47;;;2.05;;
59040;SDS011;44825;53.200;6.448;2023-06-04T03:30:56;4.75;;;2.03;;
59040;SDS011;44825;53.200;6.448;2023-06-04T03:33:22;5.20;;;2.40;;
59040;SDS011;44825;53.200;6.448;2023-06-04T03:35:48;7.47;;;1.85;;
59040;SDS011;44825;53.200;6.448;2023-06-04T03:38:14;4.32;;;2.05;;
59040;SDS011;44825;53.200;6.448;2023-06-04T03:40:40;5.30;;;2.08;;
59040;SDS011;44825;53.200;6.448;2023-06-04T03:43:06;4.43;;;1.90;;
59040;SDS011;44825;53.200;6.448;2023-06-04T03:45:32;5.65;;;1.80;;
59040;SDS011;44825;53.200;6.448;2023-06-04T03:47:59;6.20;;;2.00;;
59040;SDS011;44825;53.200;6.448;2023-06-04T03:50:25;3.30;;;2.00;;
59040;SDS011;44825;53.200;6.448;2023-06-04T03:52:51;4.43;;;2.28;;
59040;SDS011;44825;53.200;6.448;2023-06-04T03:55:17;4.72;;;2.83;;
59040;SDS011;44825;53.200;6.448;2023-06-04T03:57:43;5.15;;;2.10;;
59040;SDS011;44825;53.200;6.448;2023-06-04T04:00:10;4.90;;;2.05;;
59040;SDS011;44825;53.200;6.448;2023-06-04T04:02:38;3.47;;;1.90;;
59040;SDS011;44825;53.200;6.448;2023-06-04T04:05:04;4.72;;;2.00;;
59040;SDS011;44825;53.200;6.448;2023-06-04T04:07:30;4.20;;;1.55;;
59040;SDS011;44825;53.200;6.448;2023-06-04T04:09:56;3.22;;;1.48;;
59040;SDS011;44825;53.200;6.448;2023-06-04T04:12:22;5.05;;;2.10;;
59040;SDS011;44825;53.200;6.448;2023-06-04T04:14:48;4.05;;;1.80;;
59040;SDS011;44825;53.200;6.448;2023-06-04T04:17:14;4.22;;;1.90;;
59040;SDS011;44825;53.200;6.448;2023-06-04T04:19:40;4.82;;;1.63;;
59040;SDS011;44825;53.200;6.448;2023-06-04T04:22:06;4.00;;;1.45;;
59040;SDS011;44825;53.200;6.448;2023-06-04T04:24:34;4.88;;;1.90;;
59040;SDS011;44825;53.200;6.448;2023-06-04T04:27:04;4.40;;;1.92;;
59040;SDS011;44825;53.200;6.448;2023-06-04T04:29:30;5.07;;;2.30;;
59040;SDS011;44825;53.200;6.448;2023-06-04T04:32:00;5.20;;;2.50;;
59040;SDS011;44825;53.200;6.448;2023-06-04T04:34:36;8.45;;;2.88;;
59040;SDS011;44825;53.200;6.448;2023-06-04T04:37:04;6.40;;;2.95;;
59040;SDS011;44825;53.200;6.448;2023-06-04T04:39:33;6.15;;;3.13;;
59040;SDS011;44825;53.200;6.448;2023-06-04T04:41:59;7.93;;;3.05;;
59040;SDS011;44825;53.200;6.448;2023-06-04T04:44:25;7.60;;;2.72;;
59040;SDS011;44825;53.200;6.448;2023-06-04T04:46:51;6.30;;;2.97;;
59040;SDS011;44825;53.200;6.448;2023-06-04T04:49:17;5.03;;;2.72;;
59040;SDS011;44825;53.200;6.448;2023-06-04T04:51:43;7.53;;;3.10;;
59040;SDS011;44825;53.200;6.448;2023-06-04T04:54:09;5.35;;;3.00;;
59040;SDS011;44825;53.200;6.448;2023-06-04T04:56:36;7.22;;;2.70;;
59040;SDS011;44825;53.200;6.448;2023-06-04T04:59:02;6.10;;;3.28;;
59040;SDS011;44825;53.200;6.448;2023-06-04T05:01:28;7.15;;;3.08;;
59040;SDS011;44825;53.200;6.448;2023-06-04T05:03:54;5.95;;;3.15;;
59040;SDS011;44825;53.200;6.448;2023-06-04T05:06:20;6.07;;;3.08;;
59040;SDS011;44825;53.200;6.448;2023-06-04T05:08:47;7.25;;;3.20;;
59040;SDS011;44825;53.200;6.448;2023-06-04T05:11:14;6.65;;;2.72;;
59040;SDS011;44825;53.200;6.448;2023-06-04T05:13:40;6.35;;;3.00;;
59040;SDS011;44825;53.200;6.448;2023-06-04T05:16:09;7.47;;;2.92;;
59040;SDS011;44825;53.200;6.448;2023-06-04T05:18:39;5.47;;;2.60;;
59040;SDS011;44825;53.200;6.448;2023-06-04T05:21:06;8.90;;;3.65;;
59040;SDS011;44825;53.200;6.448;2023-06-04T05:23:32;6.78;;;3.20;;
59040;SDS011;44825;53.200;6.448;2023-06-04T05:26:02;7.13;;;3.05;;
59040;SDS011;44825;53.200;6.448;2023-06-04T05:28:29;6.95;;;3.03;;
59040;SDS011;44825;53.200;6.448;2023-06-04T05:30:58;7.28;;;3.20;;
59040;SDS011;44825;53.200;6.448;2023-06-04T05:33:28;7.35;;;3.35;;
59040;SDS011;44825;53.200;6.448;2023-06-04T05:35:56;6.80;;;3.13;;
59040;SDS011;44825;53.200;6.448;2023-06-04T05:38:25;8.07;;;3.17;;
59040;SDS011;44825;53.200;6.448;2023-06-04T05:40:51;8.02;;;3.47;;
59040;SDS011;44825;53.200;6.448;2023-06-04T05:43:17;6.15;;;3.38;;
59040;SDS011;44825;53.200;6.448;2023-06-04T05:45:43;9.48;;;3.90;;
59040;SDS011;44825;53.200;6.448;2023-06-04T05:48:10;7.72;;;4.18;;
59040;SDS011;44825;53.200;6.448;2023-06-04T05:50:36;15.88;;;5.47;;
59040;SDS011;44825;53.200;6.448;2023-06-04T05:53:02;10.55;;;4.13;;
59040;SDS011;44825;53.200;6.448;2023-06-04T05:55:28;10.55;;;3.50;;
59040;SDS011;44825;53.200;6.448;2023-06-04T05:57:54;6.93;;;3.10;;
59040;SDS011;44825;53.200;6.448;2023-06-04T06:00:21;10.93;;;3.40;;
59040;SDS011;44825;53.200;6.448;2023-06-04T06:02:48;12.25;;;4.05;;
59040;SDS011;44825;53.200;6.448;2023-06-04T06:05:15;6.25;;;2.63;;
59040;SDS011;44825;53.200;6.448;2023-06-04T06:07:41;11.30;;;3.53;;
59040;SDS011;44825;53.200;6.448;2023-06-04T06:10:08;9.90;;;3.00;;
59040;SDS011;44825;53.200;6.448;2023-06-04T06:12:34;11.57;;;3.42;;
59040;SDS011;44825;53.200;6.448;2023-06-04T06:15:00;10.05;;;3.58;;
59040;SDS011;44825;53.200;6.448;2023-06-04T06:17:26;14.32;;;3.38;;
59040;SDS011;44825;53.200;6.448;2023-06-04T06:19:53;10.60;;;3.53;;
59040;SDS011;44825;53.200;6.448;2023-06-04T06:22:20;9.38;;;3.30;;
59040;SDS011;44825;53.200;6.448;2023-06-04T06:24:46;9.48;;;3.00;;
59040;SDS011;44825;53.200;6.448;2023-06-04T06:27:16;7.88;;;3.20;;
59040;SDS011;44825;53.200;6.448;2023-06-04T06:29:42;9.88;;;2.75;;
59040;SDS011;44825;53.200;6.448;2023-06-04T06:32:09;8.85;;;2.95;;
59040;SDS011;44825;53.200;6.448;2023-06-04T06:34:35;9.25;;;3.28;;
59040;SDS011;44825;53.200;6.448;2023-06-04T06:37:03;7.43;;;2.50;;
59040;SDS011;44825;53.200;6.448;2023-06-04T06:39:29;11.70;;;3.10;;
59040;SDS011;44825;53.200;6.448;2023-06-04T06:41:55;6.43;;;2.42;;
59040;SDS011;44825;53.200;6.448;2023-06-04T06:44:21;9.60;;;2.67;;
59040;SDS011;44825;53.200;6.448;2023-06-04T06:46:47;8.35;;;2.40;;
59040;SDS011;44825;53.200;6.448;2023-06-04T06:49:14;7.78;;;2.40;;
59040;SDS011;44825;53.200;6.448;2023-06-04T06:51:40;10.27;;;2.40;;
59040;SDS011;44825;53.200;6.448;2023-06-04T06:54:08;9.55;;;2.75;;
59040;SDS011;44825;53.200;6.448;2023-06-04T06:56:34;9.75;;;2.58;;
59040;SDS011;44825;53.200;6.448;2023-06-04T06:59:00;6.65;;;2.72;;
59040;SDS011;44825;53.200;6.448;2023-06-04T07:01:26;10.05;;;2.28;;
59040;SDS011;44825;53.200;6.448;2023-06-04T07:03:53;5.60;;;2.03;;
59040;SDS011;44825;53.200;6.448;2023-06-04T07:06:19;7.50;;;1.83;;
59040;SDS011;44825;53.200;6.448;2023-06-04T07:08:45;9.57;;;2.45;;
59040;SDS011;44825;53.200;6.448;2023-06-04T07:11:13;6.55;;;2.20;;
59040;SDS011;44825;53.200;6.448;2023-06-04T07:13:39;7.47;;;2.63;;
59040;SDS011;44825;53.200;6.448;2023-06-04T07:16:05;8.85;;;2.20;;
59040;SDS011;44825;53.200;6.448;2023-06-04T07:18:31;9.32;;;2.50;;
59040;SDS011;44825;53.200;6.448;2023-06-04T07:20:58;6.55;;;1.88;;
59040;SDS011;44825;53.200;6.448;2023-06-04T07:23:24;7.75;;;2.63;;
59040;SDS011;44825;53.200;6.448;2023-06-04T07:25:50;9.82;;;2.53;;
59040;SDS011;44825;53.200;6.448;2023-06-04T07:28:16;5.85;;;2.20;;
59040;SDS011;44825;53.200;6.448;2023-06-04T07:30:44;9.85;;;2.72;;
59040;SDS011;44825;53.200;6.448;2023-06-04T07:33:10;8.40;;;2.28;;
59040;SDS011;44825;53.200;6.448;2023-06-04T07:35:36;5.68;;;2.00;;
59040;SDS011;44825;53.200;6.448;2023-06-04T07:38:02;7.15;;;1.85;;
59040;SDS011;44825;53.200;6.448;2023-06-04T07:40:28;8.85;;;2.47;;
59040;SDS011;44825;53.200;6.448;2023-06-04T07:42:55;6.63;;;1.88;;
59040;SDS011;44825;53.200;6.448;2023-06-04T07:45:21;5.32;;;1.85;;
59040;SDS011;44825;53.200;6.448;2023-06-04T07:47:47;6.05;;;2.53;;
59040;SDS011;44825;53.200;6.448;2023-06-04T07:50:13;8.55;;;1.83;;
59040;SDS011;44825;53.200;6.448;2023-06-04T07:52:39;9.35;;;2.20;;
59040;SDS011;44825;53.200;6.448;2023-06-04T07:55:05;8.07;;;2.42;;
59040;SDS011;44825;53.200;6.448;2023-06-04T07:57:33;8.65;;;2.28;;
59040;SDS011;44825;53.200;6.448;2023-06-04T08:00:00;4.40;;;1.88;;
59040;SDS011;44825;53.200;6.448;2023-06-04T08:02:29;7.10;;;2.50;;
59040;SDS011;44825;53.200;6.448;2023-06-04T08:04:55;8.70;;;2.40;;
59040;SDS011;44825;53.200;6.448;2023-06-04T08:07:21;7.18;;;2.25;;
59040;SDS011;44825;53.200;6.448;2023-06-04T08:09:47;6.93;;;1.90;;
59040;SDS011;44825;53.200;6.448;2023-06-04T08:12:14;4.93;;;1.92;;
59040;SDS011;44825;53.200;6.448;2023-06-04T08:14:41;9.65;;;1.95;;
59040;SDS011;44825;53.200;6.448;2023-06-04T08:17:07;6.32;;;1.67;;
59040;SDS011;44825;53.200;6.448;2023-06-04T08:19:33;7.28;;;1.95;;
59040;SDS011;44825;53.200;6.448;2023-06-04T08:21:59;7.30;;;2.10;;
59040;SDS011;44825;53.200;6.448;2023-06-04T08:24:25;7.75;;;2.47;;
59040;SDS011;44825;53.200;6.448;2023-06-04T08:26:51;5.35;;;1.50;;
59040;SDS011;44825;53.200;6.448;2023-06-04T08:29:17;6.80;;;1.67;;
59040;SDS011;44825;53.200;6.448;2023-06-04T08:31:43;10.32;;;2.10;;
59040;SDS011;44825;53.200;6.448;2023-06-04T08:34:09;6.07;;;2.30;;
59040;SDS011;44825;53.200;6.448;2023-06-04T08:36:35;5.47;;;1.80;;
59040;SDS011;44825;53.200;6.448;2023-06-04T08:39:02;4.75;;;1.60;;
59040;SDS011;44825;53.200;6.448;2023-06-04T08:41:29;5.68;;;1.60;;
59040;SDS011;44825;53.200;6.448;2023-06-04T08:43:55;6.60;;;2.05;;
59040;SDS011;44825;53.200;6.448;2023-06-04T08:46:22;6.93;;;1.85;;
59040;SDS011;44825;53.200;6.448;2023-06-04T08:48:49;7.30;;;1.95;;
59040;SDS011;44825;53.200;6.448;2023-06-04T08:51:16;8.43;;;2.05;;
59040;SDS011;44825;53.200;6.448;2023-06-04T08:53:42;5.30;;;1.88;;
59040;SDS011;44825;53.200;6.448;2023-06-04T08:56:12;8.25;;;2.00;;
59040;SDS011;44825;53.200;6.448;2023-06-04T08:58:39;4.47;;;1.67;;
59040;SDS011;44825;53.200;6.448;2023-06-04T09:01:06;6.15;;;1.60;;
59040;SDS011;44825;53.200;6.448;2023-06-04T09:03:33;5.55;;;1.60;;
59040;SDS011;44825;53.200;6.448;2023-06-04T09:06:00;5.50;;;1.55;;
59040;SDS011;44825;53.200;6.448;2023-06-04T09:08:29;4.78;;;1.67;;
59040;SDS011;44825;53.200;6.448;2023-06-04T09:10:57;5.78;;;1.40;;
59040;SDS011;44825;53.200;6.448;2023-06-04T09:13:28;6.60;;;1.95;;
59040;SDS011;44825;53.200;6.448;2023-06-04T09:15:59;6.78;;;1.42;;
59040;SDS011;44825;53.200;6.448;2023-06-04T09:18:26;3.47;;;1.40;;
59040;SDS011;44825;53.200;6.448;2023-06-04T09:23:27;6.97;;;1.80;;
59040;SDS011;44825;53.200;6.448;2023-06-04T09:25:53;4.55;;;1.48;;
59040;SDS011;44825;53.200;6.448;2023-06-04T09:28:20;3.80;;;1.42;;
59040;SDS011;44825;53.200;6.448;2023-06-04T09:30:53;5.32;;;1.20;;
59040;SDS011;44825;53.200;6.448;2023-06-04T09:33:19;4.30;;;1.30;;
59040;SDS011;44825;53.200;6.448;2023-06-04T09:35:58;4.68;;;1.48;;
59040;SDS011;44825;53.200;6.448;2023-06-04T09:38:37;8.52;;;1.70;;
59040;SDS011;44825;53.200;6.448;2023-06-04T09:41:03;4.55;;;1.40;;
59040;SDS011;44825;53.200;6.448;2023-06-04T09:43:30;3.85;;;1.58;;
59040;SDS011;44825;53.200;6.448;2023-06-04T09:48:36;4.97;;;1.52;;
59040;SDS011;44825;53.200;6.448;2023-06-04T09:51:12;4.75;;;1.50;;
59040;SDS011;44825;53.200;6.448;2023-06-04T09:53:38;3.92;;;1.15;;
59040;SDS011;44825;53.200;6.448;2023-06-04T09:56:05;5.38;;;1.60;;
59040;SDS011;44825;53.200;6.448;2023-06-04T09:58:32;5.85;;;1.75;;
59040;SDS011;44825;53.200;6.448;2023-06-04T10:00:59;6.78;;;1.52;;
59040;SDS011;44825;53.200;6.448;2023-06-04T10:03:26;5.65;;;1.42;;
59040;SDS011;44825;53.200;6.448;2023-06-04T10:05:56;4.20;;;1.50;;
59040;SDS011;44825;53.200;6.448;2023-06-04T10:08:22;4.90;;;1.67;;
59040;SDS011;44825;53.200;6.448;2023-06-04T10:10:54;3.85;;;1.10;;
59040;SDS011;44825;53.200;6.448;2023-06-04T10:13:21;6.85;;;1.52;;
59040;SDS011;44825;53.200;6.448;2023-06-04T10:15:49;4.57;;;1.45;;
59040;SDS011;44825;53.200;6.448;2023-06-04T10:18:15;4.32;;;1.40;;
59040;SDS011;44825;53.200;6.448;2023-06-04T10:20:41;5.03;;;1.15;;
59040;SDS011;44825;53.200;6.448;2023-06-04T10:23:07;4.18;;;1.60;;
59040;SDS011;44825;53.200;6.448;2023-06-04T10:25:37;4.22;;;1.40;;
59040;SDS011;44825;53.200;6.448;2023-06-04T10:28:03;5.55;;;1.30;;
59040;SDS011;44825;53.200;6.448;2023-06-04T10:30:30;4.15;;;1.20;;
59040;SDS011;44825;53.200;6.448;2023-06-04T10:32:56;4.65;;;1.20;;
59040;SDS011;44825;53.200;6.448;2023-06-04T10:35:29;7.35;;;1.60;;
59040;SDS011;44825;53.200;6.448;2023-06-04T10:38:09;4.25;;;1.42;;
59040;SDS011;44825;53.200;6.448;2023-06-04T10:40:36;4.47;;;1.30;;
59040;SDS011;44825;53.200;6.448;2023-06-04T10:43:05;5.72;;;1.70;;
59040;SDS011;44825;53.200;6.448;2023-06-04T10:45:31;5.65;;;1.40;;
59040;SDS011;44825;53.200;6.448;2023-06-04T10:48:05;7.35;;;1.58;;
59040;SDS011;44825;53.200;6.448;2023-06-04T10:52:57;5.05;;;1.73;;
59040;SDS011;44825;53.200;6.448;2023-06-04T10:55:24;5.35;;;1.70;;
59040;SDS011;44825;53.200;6.448;2023-06-04T10:58:00;6.72;;;1.67;;
59040;SDS011;44825;53.200;6.448;2023-06-04T11:00:37;3.83;;;1.52;;
59040;SDS011;44825;53.200;6.448;2023-06-04T11:03:04;5.03;;;1.92;;
59040;SDS011;44825;53.200;6.448;2023-06-04T11:06:13;4.60;;;1.58;;
59040;SDS011;44825;53.200;6.448;2023-06-04T11:08:28;3.80;;;1.30;;
59040;SDS011;44825;53.200;6.448;2023-06-04T11:10:55;5.50;;;1.83;;
59040;SDS011;44825;53.200;6.448;2023-06-04T11:13:24;4.75;;;1.90;;
59040;SDS011;44825;53.200;6.448;2023-06-04T11:15:51;4.38;;;1.55;;
59040;SDS011;44825;53.200;6.448;2023-06-04T11:18:17;3.85;;;1.25;;
59040;SDS011;44825;53.200;6.448;2023-06-04T11:20:44;4.53;;;1.63;;
59040;SDS011;44825;53.200;6.448;2023-06-04T11:23:11;4.70;;;1.50;;
59040;SDS011;44825;53.200;6.448;2023-06-04T11:25:38;4.70;;;1.63;;
59040;SDS011;44825;53.200;6.448;2023-06-04T11:28:04;5.32;;;1.80;;
59040;SDS011;44825;53.200;6.448;2023-06-04T11:30:30;4.85;;;1.70;;
59040;SDS011;44825;53.200;6.448;2023-06-04T11:33:03;5.72;;;1.60;;
59040;SDS011;44825;53.200;6.448;2023-06-04T11:35:29;4.95;;;1.55;;
59040;SDS011;44825;53.200;6.448;2023-06-04T11:37:56;4.47;;;1.80;;
59040;SDS011;44825;53.200;6.448;2023-06-04T11:40:23;5.95;;;1.90;;
59040;SDS011;44825;53.200;6.448;2023-06-04T11:42:51;5.97;;;1.63;;
59040;SDS011;44825;53.200;6.448;2023-06-04T11:45:18;5.30;;;1.70;;
59040;SDS011;44825;53.200;6.448;2023-06-04T11:47:46;4.20;;;1.80;;
59040;SDS011;44825;53.200;6.448;2023-06-04T11:50:13;4.72;;;1.42;;
59040;SDS011;44825;53.200;6.448;2023-06-04T11:52:39;5.05;;;1.90;;
59040;SDS011;44825;53.200;6.448;2023-06-04T11:55:09;7.63;;;2.25;;
59040;SDS011;44825;53.200;6.448;2023-06-04T11:57:36;3.90;;;1.73;;
59040;SDS011;44825;53.200;6.448;2023-06-04T12:00:02;6.95;;;2.50;;
59040;SDS011;44825;53.200;6.448;2023-06-04T12:02:34;7.70;;;2.15;;
59040;SDS011;44825;53.200;6.448;2023-06-04T12:05:10;6.18;;;1.98;;
59040;SDS011;44825;53.200;6.448;2023-06-04T12:07:36;5.07;;;1.73;;
59040;SDS011;44825;53.200;6.448;2023-06-04T12:10:05;5.90;;;2.10;;
59040;SDS011;44825;53.200;6.448;2023-06-04T12:12:32;5.75;;;2.05;;
59040;SDS011;44825;53.200;6.448;2023-06-04T12:15:00;5.45;;;2.20;;
59040;SDS011;44825;53.200;6.448;2023-06-04T12:17:26;5.47;;;1.98;;
59040;SDS011;44825;53.200;6.448;2023-06-04T12:19:52;5.47;;;1.73;;
59040;SDS011;44825;53.200;6.448;2023-06-04T12:22:18;6.20;;;2.00;;
59040;SDS011;44825;53.200;6.448;2023-06-04T12:24:51;5.15;;;1.80;;
59040;SDS011;44825;53.200;6.448;2023-06-04T12:29:54;3.72;;;1.48;;
59040;SDS011;44825;53.200;6.448;2023-06-04T12:32:20;6.70;;;1.52;;
59040;SDS011;44825;53.200;6.448;2023-06-04T12:34:46;5.30;;;1.60;;
59040;SDS011;44825;53.200;6.448;2023-06-04T12:37:13;5.72;;;1.70;;
59040;SDS011;44825;53.200;6.448;2023-06-04T12:39:39;6.40;;;1.40;;
59040;SDS011;44825;53.200;6.448;2023-06-04T12:42:06;3.72;;;1.30;;
59040;SDS011;44825;53.200;6.448;2023-06-04T12:44:38;6.18;;;1.40;;
59040;SDS011;44825;53.200;6.448;2023-06-04T12:47:05;6.13;;;1.40;;
59040;SDS011;44825;53.200;6.448;2023-06-04T12:49:31;7.15;;;1.90;;
59040;SDS011;44825;53.200;6.448;2023-06-04T12:51:58;3.40;;;1.25;;
59040;SDS011;44825;53.200;6.448;2023-06-04T12:54:24;3.88;;;1.40;;
59040;SDS011;44825;53.200;6.448;2023-06-04T12:56:51;5.13;;;2.53;;
59040;SDS011;44825;53.200;6.448;2023-06-04T12:59:18;4.85;;;1.58;;
59040;SDS011;44825;53.200;6.448;2023-06-04T13:01:44;4.35;;;1.58;;
59040;SDS011;44825;53.200;6.448;2023-06-04T13:04:10;6.40;;;1.67;;
59040;SDS011;44825;53.200;6.448;2023-06-04T13:06:36;3.13;;;1.25;;
59040;SDS011;44825;53.200;6.448;2023-06-04T13:09:03;5.05;;;1.52;;
59040;SDS011;44825;53.200;6.448;2023-06-04T13:11:34;6.20;;;1.33;;
59040;SDS011;44825;53.200;6.448;2023-06-04T13:14:00;3.92;;;1.40;;
59040;SDS011;44825;53.200;6.448;2023-06-04T13:16:26;4.85;;;1.45;;
59040;SDS011;44825;53.200;6.448;2023-06-04T13:18:52;5.13;;;1.50;;
59040;SDS011;44825;53.200;6.448;2023-06-04T13:21:18;4.57;;;1.42;;
59040;SDS011;44825;53.200;6.448;2023-06-04T13:23:45;5.68;;;1.70;;
59040;SDS011;44825;53.200;6.448;2023-06-04T13:26:11;5.90;;;1.67;;
59040;SDS011;44825;53.200;6.448;2023-06-04T13:28:37;3.80;;;1.30;;
59040;SDS011;44825;53.200;6.448;2023-06-04T13:31:03;8.32;;;1.40;;
59040;SDS011;44825;53.200;6.448;2023-06-04T13:33:29;3.95;;;1.45;;
59040;SDS011;44825;53.200;6.448;2023-06-04T13:35:55;3.97;;;1.58;;
59040;SDS011;44825;53.200;6.448;2023-06-04T13:38:21;5.05;;;1.67;;
59040;SDS011;44825;53.200;6.448;2023-06-04T13:40:47;5.22;;;1.58;;
59040;SDS011;44825;53.200;6.448;2023-06-04T13:43:14;5.00;;;1.58;;
59040;SDS011;44825;53.200;6.448;2023-06-04T13:45:40;4.43;;;1.80;;
59040;SDS011;44825;53.200;6.448;2023-06-04T13:48:09;4.80;;;1.45;;
59040;SDS011;44825;53.200;6.448;2023-06-04T13:50:35;6.68;;;2.00;;
59040;SDS011;44825;53.200;6.448;2023-06-04T13:53:01;6.03;;;1.63;;
59040;SDS011;44825;53.200;6.448;2023-06-04T13:55:27;4.22;;;1.40;;
59040;SDS011;44825;53.200;6.448;2023-06-04T13:57:53;5.43;;;1.77;;
59040;SDS011;44825;53.200;6.448;2023-06-04T14:00:19;6.38;;;1.73;;
59040;SDS011;44825;53.200;6.448;2023-06-04T14:02:46;4.70;;;1.83;;
59040;SDS011;44825;53.200;6.448;2023-06-04T14:05:13;6.18;;;2.03;;
59040;SDS011;44825;53.200;6.448;2023-06-04T14:07:40;4.85;;;1.80;;
59040;SDS011;44825;53.200;6.448;2023-06-04T14:10:07;7.22;;;1.88;;
59040;SDS011;44825;53.200;6.448;2023-06-04T14:12:33;3.33;;;1.38;;
59040;SDS011;44825;53.200;6.448;2023-06-04T14:15:00;3.42;;;1.50;;
59040;SDS011;44825;53.200;6.448;2023-06-04T14:17:26;6.82;;;1.55;;
59040;SDS011;44825;53.200;6.448;2023-06-04T14:19:52;7.75;;;1.58;;
59040;SDS011;44825;53.200;6.448;2023-06-04T14:22:18;5.85;;;1.90;;
59040;SDS011;44825;53.200;6.448;2023-06-04T14:24:44;9.38;;;1.90;;
59040;SDS011;44825;53.200;6.448;2023-06-04T14:27:10;4.75;;;2.10;;
59040;SDS011;44825;53.200;6.448;2023-06-04T14:29:37;5.05;;;1.55;;
59040;SDS011;44825;53.200;6.448;2023-06-04T14:32:04;4.90;;;1.58;;
59040;SDS011;44825;53.200;6.448;2023-06-04T14:34:30;3.35;;;1.35;;
59040;SDS011;44825;53.200;6.448;2023-06-04T14:36:57;4.28;;;1.38;;
59040;SDS011;44825;53.200;6.448;2023-06-04T14:39:24;3.38;;;1.13;;
59040;SDS011;44825;53.200;6.448;2023-06-04T14:41:51;6.43;;;1.70;;
59040;SDS011;44825;53.200;6.448;2023-06-04T14:44:17;6.28;;;1.60;;
59040;SDS011;44825;53.200;6.448;2023-06-04T14:46:43;4.28;;;1.42;;
59040;SDS011;44825;53.200;6.448;2023-06-04T14:49:10;4.60;;;1.65;;
59040;SDS011;44825;53.200;6.448;2023-06-04T14:51:36;6.22;;;1.50;;
59040;SDS011;44825;53.200;6.448;2023-06-04T14:54:02;6.30;;;1.92;;
59040;SDS011;44825;53.200;6.448;2023-06-04T14:56:28;4.57;;;1.70;;
59040;SDS011;44825;53.200;6.448;2023-06-04T14:58:55;4.57;;;1.95;;
59040;SDS011;44825;53.200;6.448;2023-06-04T15:01:21;4.43;;;1.70;;
59040;SDS011;44825;53.200;6.448;2023-06-04T15:03:49;8.23;;;2.20;;